sensor_id;sensor_type;location;lat;lon;timestamp;temperature;humidity
14409;DHT22;7289;50.706;4.992;2023-05-10T00:02:03;14.10;99.90
14409;DHT22;7289;50.706;4.992;2023-05-10T00:04:32;14.10;99.90
14409;DHT22;7289;50.706;4.992;2023-05-10T00:07:01;14.10;99.90
14409;DHT22;7289;50.706;4.992;2023-05-10T00:09:29;14.10;99.90
14409;DHT22;7289;50.706;4.992;2023-05-10T00:11:57;14.00;99.90
14409;DHT22;7289;50.706;4.992;2023-05-10T00:14:26;14.10;99.90
14409;DHT22;7289;50.706;4.992;2023-05-10T00:16:55;14.00;99.90
14409;DHT22;7289;50.706;4.992;2023-05-10T00:19:24;14.00;99.90
14409;DHT22;7289;50.706;4.992;2023-05-10T00:21:52;14.10;99.90
14409;DHT22;7289;50.706;4.992;2023-05-10T00:24:21;14.10;99.90
14409;DHT22;7289;50.706;4.992;2023-05-10T00:26:49;14.00;99.90
14409;DHT22;7289;50.706;4.992;2023-05-10T00:29:17;14.10;99.90
14409;DHT22;7289;50.706;4.992;2023-05-10T00:31:47;14.00;99.90
14409;DHT22;7289;50.706;4.992;2023-05-10T00:34:17;14.10;99.90
14409;DHT22;7289;50.706;4.992;2023-05-10T00:36:45;14.10;99.90
14409;DHT22;7289;50.706;4.992;2023-05-10T00:39:13;14.10;99.90
14409;DHT22;7289;50.706;4.992;2023-05-10T00:41:42;14.10;99.90
14409;DHT22;7289;50.706;4.992;2023-05-10T00:44:10;14.10;99.90
14409;DHT22;7289;50.706;4.992;2023-05-10T00:46:38;14.10;99.90
14409;DHT22;7289;50.706;4.992;2023-05-10T00:49:07;14.10;99.90
14409;DHT22;7289;50.706;4.992;2023-05-10T00:51:37;14.10;99.90
14409;DHT22;7289;50.706;4.992;2023-05-10T00:54:05;14.10;99.90
14409;DHT22;7289;50.706;4.992;2023-05-10T00:56:34;14.10;99.90
14409;DHT22;7289;50.706;4.992;2023-05-10T00:59:02;14.20;99.90
14409;DHT22;7289;50.706;4.992;2023-05-10T01:01:30;14.20;99.90
14409;DHT22;7289;50.706;4.992;2023-05-10T01:03:59;14.20;99.90
14409;DHT22;7289;50.706;4.992;2023-05-10T01:06:28;14.20;99.90
14409;DHT22;7289;50.706;4.992;2023-05-10T01:08:58;14.20;99.90
14409;DHT22;7289;50.706;4.992;2023-05-10T01:11:26;14.20;99.90
14409;DHT22;7289;50.706;4.992;2023-05-10T01:13:56;14.20;99.90
14409;DHT22;7289;50.706;4.992;2023-05-10T01:16:26;14.10;99.90
14409;DHT22;7289;50.706;4.992;2023-05-10T01:18:55;14.10;99.90
14409;DHT22;7289;50.706;4.992;2023-05-10T01:21:30;14.10;99.90
14409;DHT22;7289;50.706;4.992;2023-05-10T01:24:14;14.10;99.90
14409;DHT22;7289;50.706;4.992;2023-05-10T01:27:24;14.00;99.90
14409;DHT22;7289;50.706;4.992;2023-05-10T01:30:21;14.10;99.90
14409;DHT22;7289;50.706;4.992;2023-05-10T01:33:00;14.00;99.90
14409;DHT22;7289;50.706;4.992;2023-05-10T01:35:34;14.10;99.90
14409;DHT22;7289;50.706;4.992;2023-05-10T01:38:21;14.10;99.90
14409;DHT22;7289;50.706;4.992;2023-05-10T01:41:00;14.20;99.90
14409;DHT22;7289;50.706;4.992;2023-05-10T01:43:53;14.20;99.90
14409;DHT22;7289;50.706;4.992;2023-05-10T01:46:27;14.20;99.90
14409;DHT22;7289;50.706;4.992;2023-05-10T01:48:59;14.20;99.90
14409;DHT22;7289;50.706;4.992;2023-05-10T01:51:34;14.20;99.90
14409;DHT22;7289;50.706;4.992;2023-05-10T01:54:05;14.10;99.90
14409;DHT22;7289;50.706;4.992;2023-05-10T01:56:35;14.10;99.90
14409;DHT22;7289;50.706;4.992;2023-05-10T01:59:11;14.10;99.90
14409;DHT22;7289;50.706;4.992;2023-05-10T02:01:41;14.10;99.90
14409;DHT22;7289;50.706;4.992;2023-05-10T02:04:15;14.20;99.90
14409;DHT22;7289;50.706;4.992;2023-05-10T02:06:47;14.10;99.90
14409;DHT22;7289;50.706;4.992;2023-05-10T02:09:16;14.20;99.90
14409;DHT22;7289;50.706;4.992;2023-05-10T02:11:48;14.20;99.90
14409;DHT22;7289;50.706;4.992;2023-05-10T02:14:18;14.10;99.90
14409;DHT22;7289;50.706;4.992;2023-05-10T02:16:47;14.20;99.90
14409;DHT22;7289;50.706;4.992;2023-05-10T02:19:20;14.10;99.90
14409;DHT22;7289;50.706;4.992;2023-05-10T02:21:51;14.20;99.90
14409;DHT22;7289;50.706;4.992;2023-05-10T02:24:20;14.20;99.90
14409;DHT22;7289;50.706;4.992;2023-05-10T02:26:50;14.20;99.90
14409;DHT22;7289;50.706;4.992;2023-05-10T02:29:19;14.20;99.90
14409;DHT22;7289;50.706;4.992;2023-05-10T02:31:51;14.30;99.90
14409;DHT22;7289;50.706;4.992;2023-05-10T02:34:23;14.20;99.90
14409;DHT22;7289;50.706;4.992;2023-05-10T02:36:53;14.20;99.90
14409;DHT22;7289;50.706;4.992;2023-05-10T02:39:24;14.20;99.90
14409;DHT22;7289;50.706;4.992;2023-05-10T02:41:53;14.20;99.90
14409;DHT22;7289;50.706;4.992;2023-05-10T02:44:22;14.10;99.90
14409;DHT22;7289;50.706;4.992;2023-05-10T02:46:51;14.20;99.90
14409;DHT22;7289;50.706;4.992;2023-05-10T02:49:24;14.20;99.90
14409;DHT22;7289;50.706;4.992;2023-05-10T02:51:56;14.20;99.90
14409;DHT22;7289;50.706;4.992;2023-05-10T02:54:29;14.10;99.90
14409;DHT22;7289;50.706;4.992;2023-05-10T02:56:59;14.20;99.90
14409;DHT22;7289;50.706;4.992;2023-05-10T02:59:28;14.10;99.90
14409;DHT22;7289;50.706;4.992;2023-05-10T03:01:57;14.10;99.90
14409;DHT22;7289;50.706;4.992;2023-05-10T03:04:26;14.10;99.90
14409;DHT22;7289;50.706;4.992;2023-05-10T03:06:57;14.10;99.90
14409;DHT22;7289;50.706;4.992;2023-05-10T03:09:26;14.20;99.90
14409;DHT22;7289;50.706;4.992;2023-05-10T03:12:02;14.20;99.90
14409;DHT22;7289;50.706;4.992;2023-05-10T03:14:45;14.20;99.90
14409;DHT22;7289;50.706;4.992;2023-05-10T03:17:26;14.30;99.90
14409;DHT22;7289;50.706;4.992;2023-05-10T03:20:06;14.30;99.90
14409;DHT22;7289;50.706;4.992;2023-05-10T03:22:39;14.20;99.90
14409;DHT22;7289;50.706;4.992;2023-05-10T03:25:10;14.20;99.90
14409;DHT22;7289;50.706;4.992;2023-05-10T03:27:42;14.30;99.90
14409;DHT22;7289;50.706;4.992;2023-05-10T03:30:12;14.20;99.90
14409;DHT22;7289;50.706;4.992;2023-05-10T03:32:41;14.30;99.90
14409;DHT22;7289;50.706;4.992;2023-05-10T03:35:12;14.30;99.90
14409;DHT22;7289;50.706;4.992;2023-05-10T03:37:41;14.30;99.90
14409;DHT22;7289;50.706;4.992;2023-05-10T03:40:10;14.20;99.90
14409;DHT22;7289;50.706;4.992;2023-05-10T03:42:41;14.30;99.90
14409;DHT22;7289;50.706;4.992;2023-05-10T03:45:10;14.30;99.90
14409;DHT22;7289;50.706;4.992;2023-05-10T03:47:40;14.30;99.90
14409;DHT22;7289;50.706;4.992;2023-05-10T03:50:09;14.30;99.90
14409;DHT22;7289;50.706;4.992;2023-05-10T03:52:39;14.30;99.90
14409;DHT22;7289;50.706;4.992;2023-05-10T03:55:08;14.30;99.90
14409;DHT22;7289;50.706;4.992;2023-05-10T03:57:37;14.20;99.90
14409;DHT22;7289;50.706;4.992;2023-05-10T04:00:07;14.30;99.90
14409;DHT22;7289;50.706;4.992;2023-05-10T04:02:42;14.20;99.90
14409;DHT22;7289;50.706;4.992;2023-05-10T04:05:17;14.30;99.90
14409;DHT22;7289;50.706;4.992;2023-05-10T04:07:47;14.10;99.90
14409;DHT22;7289;50.706;4.992;2023-05-10T04:10:16;14.10;99.90
14409;DHT22;7289;50.706;4.992;2023-05-10T04:12:45;14.10;99.90
14409;DHT22;7289;50.706;4.992;2023-05-10T04:15:13;14.10;99.90
14409;DHT22;7289;50.706;4.992;2023-05-10T04:17:41;14.00;99.90
14409;DHT22;7289;50.706;4.992;2023-05-10T04:20:11;14.00;99.90
14409;DHT22;7289;50.706;4.992;2023-05-10T04:22:39;14.00;99.90
14409;DHT22;7289;50.706;4.992;2023-05-10T04:25:09;14.00;99.90
14409;DHT22;7289;50.706;4.992;2023-05-10T04:27:37;14.00;99.90
14409;DHT22;7289;50.706;4.992;2023-05-10T04:30:07;14.00;99.90
14409;DHT22;7289;50.706;4.992;2023-05-10T04:32:35;14.00;99.90
14409;DHT22;7289;50.706;4.992;2023-05-10T04:35:04;13.90;99.90
14409;DHT22;7289;50.706;4.992;2023-05-10T04:37:33;13.80;99.90
14409;DHT22;7289;50.706;4.992;2023-05-10T04:40:01;13.80;99.90
14409;DHT22;7289;50.706;4.992;2023-05-10T04:42:31;13.70;99.90
14409;DHT22;7289;50.706;4.992;2023-05-10T04:45:00;13.70;99.90
14409;DHT22;7289;50.706;4.992;2023-05-10T04:47:28;13.70;99.90
14409;DHT22;7289;50.706;4.992;2023-05-10T04:49:56;13.70;99.90
14409;DHT22;7289;50.706;4.992;2023-05-10T04:52:25;13.70;99.90
14409;DHT22;7289;50.706;4.992;2023-05-10T04:54:53;13.80;99.90
14409;DHT22;7289;50.706;4.992;2023-05-10T04:57:22;13.80;99.90
14409;DHT22;7289;50.706;4.992;2023-05-10T04:59:51;13.80;99.90
14409;DHT22;7289;50.706;4.992;2023-05-10T05:02:20;13.80;99.90
14409;DHT22;7289;50.706;4.992;2023-05-10T05:04:48;13.80;99.90
14409;DHT22;7289;50.706;4.992;2023-05-10T05:07:17;13.80;99.90
14409;DHT22;7289;50.706;4.992;2023-05-10T05:09:45;13.70;99.90
14409;DHT22;7289;50.706;4.992;2023-05-10T05:12:13;13.80;99.90
14409;DHT22;7289;50.706;4.992;2023-05-10T05:14:42;13.90;99.90
14409;DHT22;7289;50.706;4.992;2023-05-10T05:17:11;13.90;99.90
14409;DHT22;7289;50.706;4.992;2023-05-10T05:19:40;13.90;99.90
14409;DHT22;7289;50.706;4.992;2023-05-10T05:22:08;14.00;99.90
14409;DHT22;7289;50.706;4.992;2023-05-10T05:24:36;14.00;99.90
14409;DHT22;7289;50.706;4.992;2023-05-10T05:27:05;14.10;99.90
14409;DHT22;7289;50.706;4.992;2023-05-10T05:29:34;14.00;99.90
14409;DHT22;7289;50.706;4.992;2023-05-10T05:32:02;14.10;99.90
14409;DHT22;7289;50.706;4.992;2023-05-10T05:34:32;14.00;99.90
14409;DHT22;7289;50.706;4.992;2023-05-10T05:37:01;13.90;99.90
14409;DHT22;7289;50.706;4.992;2023-05-10T05:39:29;13.80;99.90
14409;DHT22;7289;50.706;4.992;2023-05-10T05:41:57;13.80;99.90
14409;DHT22;7289;50.706;4.992;2023-05-10T05:44:26;13.70;99.90
14409;DHT22;7289;50.706;4.992;2023-05-10T05:46:55;13.70;99.90
14409;DHT22;7289;50.706;4.992;2023-05-10T05:49:24;13.70;99.90
14409;DHT22;7289;50.706;4.992;2023-05-10T05:51:53;13.70;99.90
14409;DHT22;7289;50.706;4.992;2023-05-10T05:54:22;13.80;99.90
14409;DHT22;7289;50.706;4.992;2023-05-10T05:56:50;13.90;99.90
14409;DHT22;7289;50.706;4.992;2023-05-10T05:59:19;13.90;99.90
14409;DHT22;7289;50.706;4.992;2023-05-10T06:01:47;13.80;99.90
14409;DHT22;7289;50.706;4.992;2023-05-10T06:04:16;13.70;99.90
14409;DHT22;7289;50.706;4.992;2023-05-10T06:06:45;13.60;99.90
14409;DHT22;7289;50.706;4.992;2023-05-10T06:09:14;13.40;99.90
14409;DHT22;7289;50.706;4.992;2023-05-10T06:11:43;13.40;99.90
14409;DHT22;7289;50.706;4.992;2023-05-10T06:14:12;13.30;99.90
14409;DHT22;7289;50.706;4.992;2023-05-10T06:16:40;13.30;99.90
14409;DHT22;7289;50.706;4.992;2023-05-10T06:19:08;13.30;99.90
14409;DHT22;7289;50.706;4.992;2023-05-10T06:21:36;13.30;99.90
14409;DHT22;7289;50.706;4.992;2023-05-10T06:24:05;13.30;99.90
14409;DHT22;7289;50.706;4.992;2023-05-10T06:26:35;13.20;99.90
14409;DHT22;7289;50.706;4.992;2023-05-10T06:29:04;13.30;99.90
14409;DHT22;7289;50.706;4.992;2023-05-10T06:31:32;13.20;99.90
14409;DHT22;7289;50.706;4.992;2023-05-10T06:34:01;13.20;99.90
14409;DHT22;7289;50.706;4.992;2023-05-10T06:36:29;13.20;99.90
14409;DHT22;7289;50.706;4.992;2023-05-10T06:38:58;13.20;99.90
14409;DHT22;7289;50.706;4.992;2023-05-10T06:41:26;13.20;99.90
14409;DHT22;7289;50.706;4.992;2023-05-10T06:43:56;13.00;99.90
14409;DHT22;7289;50.706;4.992;2023-05-10T06:46:24;13.10;99.90
14409;DHT22;7289;50.706;4.992;2023-05-10T06:48:52;13.00;99.90
14409;DHT22;7289;50.706;4.992;2023-05-10T06:51:21;13.00;99.90
14409;DHT22;7289;50.706;4.992;2023-05-10T06:53:49;13.00;99.90
14409;DHT22;7289;50.706;4.992;2023-05-10T06:56:18;12.90;99.90
14409;DHT22;7289;50.706;4.992;2023-05-10T06:58:48;12.90;99.90
14409;DHT22;7289;50.706;4.992;2023-05-10T07:01:18;12.90;99.90
14409;DHT22;7289;50.706;4.992;2023-05-10T07:03:46;12.90;99.90
14409;DHT22;7289;50.706;4.992;2023-05-10T07:06:15;12.80;99.90
14409;DHT22;7289;50.706;4.992;2023-05-10T07:08:59;12.80;99.90
14409;DHT22;7289;50.706;4.992;2023-05-10T07:11:28;12.90;99.90
14409;DHT22;7289;50.706;4.992;2023-05-10T07:13:56;12.90;99.90
14409;DHT22;7289;50.706;4.992;2023-05-10T07:16:26;12.90;99.90
14409;DHT22;7289;50.706;4.992;2023-05-10T07:18:54;13.00;99.90
14409;DHT22;7289;50.706;4.992;2023-05-10T07:21:22;13.10;99.90
14409;DHT22;7289;50.706;4.992;2023-05-10T07:23:52;13.10;99.90
14409;DHT22;7289;50.706;4.992;2023-05-10T07:26:20;13.10;99.90
14409;DHT22;7289;50.706;4.992;2023-05-10T07:28:48;13.10;99.90
14409;DHT22;7289;50.706;4.992;2023-05-10T07:31:17;13.20;99.90
14409;DHT22;7289;50.706;4.992;2023-05-10T07:33:46;13.20;99.90
14409;DHT22;7289;50.706;4.992;2023-05-10T07:36:15;13.30;99.90
14409;DHT22;7289;50.706;4.992;2023-05-10T07:38:43;13.30;99.90
14409;DHT22;7289;50.706;4.992;2023-05-10T07:41:12;13.30;99.90
14409;DHT22;7289;50.706;4.992;2023-05-10T07:43:40;13.20;99.90
14409;DHT22;7289;50.706;4.992;2023-05-10T07:46:09;13.30;99.90
14409;DHT22;7289;50.706;4.992;2023-05-10T07:48:38;13.30;99.90
14409;DHT22;7289;50.706;4.992;2023-05-10T07:51:07;13.30;99.90
14409;DHT22;7289;50.706;4.992;2023-05-10T07:53:37;13.20;99.90
14409;DHT22;7289;50.706;4.992;2023-05-10T07:56:21;13.20;99.90
14409;DHT22;7289;50.706;4.992;2023-05-10T07:58:50;13.20;99.90
14409;DHT22;7289;50.706;4.992;2023-05-10T08:01:18;13.20;99.90
14409;DHT22;7289;50.706;4.992;2023-05-10T08:03:47;13.30;99.90
14409;DHT22;7289;50.706;4.992;2023-05-10T08:06:17;13.40;99.90
14409;DHT22;7289;50.706;4.992;2023-05-10T08:08:46;13.40;99.90
14409;DHT22;7289;50.706;4.992;2023-05-10T08:11:16;13.50;99.90
14409;DHT22;7289;50.706;4.992;2023-05-10T08:13:45;13.60;99.90
14409;DHT22;7289;50.706;4.992;2023-05-10T08:16:13;13.70;99.90
14409;DHT22;7289;50.706;4.992;2023-05-10T08:18:43;13.70;99.90
14409;DHT22;7289;50.706;4.992;2023-05-10T08:21:14;13.80;99.90
14409;DHT22;7289;50.706;4.992;2023-05-10T08:23:44;14.00;99.90
14409;DHT22;7289;50.706;4.992;2023-05-10T08:26:12;14.10;99.90
14409;DHT22;7289;50.706;4.992;2023-05-10T08:28:40;14.10;99.90
14409;DHT22;7289;50.706;4.992;2023-05-10T08:31:09;14.10;99.90
14409;DHT22;7289;50.706;4.992;2023-05-10T08:33:37;14.20;99.90
14409;DHT22;7289;50.706;4.992;2023-05-10T08:36:08;14.40;99.90
14409;DHT22;7289;50.706;4.992;2023-05-10T08:38:37;14.40;99.90
14409;DHT22;7289;50.706;4.992;2023-05-10T08:41:07;14.60;99.90
14409;DHT22;7289;50.706;4.992;2023-05-10T08:43:36;14.80;99.90
14409;DHT22;7289;50.706;4.992;2023-05-10T08:46:05;14.80;99.90
14409;DHT22;7289;50.706;4.992;2023-05-10T08:48:36;14.90;99.90
14409;DHT22;7289;50.706;4.992;2023-05-10T08:51:06;14.90;99.90
14409;DHT22;7289;50.706;4.992;2023-05-10T08:53:36;15.00;99.90
14409;DHT22;7289;50.706;4.992;2023-05-10T08:56:07;15.20;99.90
14409;DHT22;7289;50.706;4.992;2023-05-10T08:58:37;15.30;99.90
14409;DHT22;7289;50.706;4.992;2023-05-10T09:01:05;15.60;99.90
14409;DHT22;7289;50.706;4.992;2023-05-10T09:03:35;15.80;99.90
14409;DHT22;7289;50.706;4.992;2023-05-10T09:06:03;16.00;99.90
14409;DHT22;7289;50.706;4.992;2023-05-10T09:08:32;16.10;99.90
14409;DHT22;7289;50.706;4.992;2023-05-10T09:11:01;16.20;99.90
14409;DHT22;7289;50.706;4.992;2023-05-10T09:13:32;16.00;99.90
14409;DHT22;7289;50.706;4.992;2023-05-10T09:16:01;15.90;99.90
14409;DHT22;7289;50.706;4.992;2023-05-10T09:18:46;15.90;99.90
14409;DHT22;7289;50.706;4.992;2023-05-10T09:21:16;16.10;99.90
14409;DHT22;7289;50.706;4.992;2023-05-10T09:23:45;16.00;99.90
14409;DHT22;7289;50.706;4.992;2023-05-10T09:26:15;16.00;99.90
14409;DHT22;7289;50.706;4.992;2023-05-10T09:28:55;16.20;99.90
14409;DHT22;7289;50.706;4.992;2023-05-10T09:31:24;16.40;99.90
14409;DHT22;7289;50.706;4.992;2023-05-10T09:33:53;16.50;99.90
14409;DHT22;7289;50.706;4.992;2023-05-10T09:36:21;16.60;99.90
14409;DHT22;7289;50.706;4.992;2023-05-10T09:38:51;16.70;99.90
14409;DHT22;7289;50.706;4.992;2023-05-10T09:41:21;16.70;99.90
14409;DHT22;7289;50.706;4.992;2023-05-10T09:43:50;16.80;99.90
14409;DHT22;7289;50.706;4.992;2023-05-10T09:46:19;16.90;99.90
14409;DHT22;7289;50.706;4.992;2023-05-10T09:48:48;17.00;99.90
14409;DHT22;7289;50.706;4.992;2023-05-10T09:51:20;17.20;99.90
14409;DHT22;7289;50.706;4.992;2023-05-10T09:53:49;17.40;99.90
14409;DHT22;7289;50.706;4.992;2023-05-10T09:56:36;17.40;99.90
14409;DHT22;7289;50.706;4.992;2023-05-10T09:59:08;17.50;99.90
14409;DHT22;7289;50.706;4.992;2023-05-10T10:01:38;17.50;99.90
14409;DHT22;7289;50.706;4.992;2023-05-10T10:04:09;17.40;99.90
14409;DHT22;7289;50.706;4.992;2023-05-10T10:06:38;17.40;99.90
14409;DHT22;7289;50.706;4.992;2023-05-10T10:09:07;17.30;99.90
14409;DHT22;7289;50.706;4.992;2023-05-10T10:11:37;17.20;99.90
14409;DHT22;7289;50.706;4.992;2023-05-10T10:14:06;17.10;99.90
14409;DHT22;7289;50.706;4.992;2023-05-10T10:16:35;16.90;99.90
14409;DHT22;7289;50.706;4.992;2023-05-10T10:19:13;17.00;99.90
14409;DHT22;7289;50.706;4.992;2023-05-10T10:21:41;17.00;99.90
14409;DHT22;7289;50.706;4.992;2023-05-10T10:24:10;17.00;99.90
14409;DHT22;7289;50.706;4.992;2023-05-10T10:26:38;16.90;99.90
14409;DHT22;7289;50.706;4.992;2023-05-10T10:29:25;17.00;99.90
14409;DHT22;7289;50.706;4.992;2023-05-10T10:32:07;16.90;99.90
14409;DHT22;7289;50.706;4.992;2023-05-10T10:34:40;16.70;99.90
14409;DHT22;7289;50.706;4.992;2023-05-10T10:37:09;16.50;99.90
14409;DHT22;7289;50.706;4.992;2023-05-10T10:39:37;16.50;99.90
14409;DHT22;7289;50.706;4.992;2023-05-10T10:42:06;16.50;99.90
14409;DHT22;7289;50.706;4.992;2023-05-10T10:44:36;16.40;99.90
14409;DHT22;7289;50.706;4.992;2023-05-10T10:47:21;16.40;99.90
14409;DHT22;7289;50.706;4.992;2023-05-10T10:50:03;16.60;99.90
14409;DHT22;7289;50.706;4.992;2023-05-10T10:52:33;16.50;99.90
14409;DHT22;7289;50.706;4.992;2023-05-10T10:55:03;16.60;99.90
14409;DHT22;7289;50.706;4.992;2023-05-10T10:57:35;16.80;99.90
14409;DHT22;7289;50.706;4.992;2023-05-10T11:00:35;16.80;99.90
14409;DHT22;7289;50.706;4.992;2023-05-10T11:03:05;17.10;99.90
14409;DHT22;7289;50.706;4.992;2023-05-10T11:05:38;17.00;99.90
14409;DHT22;7289;50.706;4.992;2023-05-10T11:08:10;17.10;99.90
14409;DHT22;7289;50.706;4.992;2023-05-10T11:10:39;17.20;99.90
14409;DHT22;7289;50.706;4.992;2023-05-10T11:13:09;17.30;99.90
14409;DHT22;7289;50.706;4.992;2023-05-10T11:15:39;17.20;99.90
14409;DHT22;7289;50.706;4.992;2023-05-10T11:18:17;17.30;99.90
14409;DHT22;7289;50.706;4.992;2023-05-10T11:20:51;17.50;99.90
14409;DHT22;7289;50.706;4.992;2023-05-10T11:23:21;17.60;99.90
14409;DHT22;7289;50.706;4.992;2023-05-10T11:25:50;17.70;99.90
14409;DHT22;7289;50.706;4.992;2023-05-10T11:28:18;17.80;99.90
14409;DHT22;7289;50.706;4.992;2023-05-10T11:30:47;17.80;99.90
14409;DHT22;7289;50.706;4.992;2023-05-10T11:33:16;17.70;99.90
14409;DHT22;7289;50.706;4.992;2023-05-10T11:35:46;17.50;99.90
14409;DHT22;7289;50.706;4.992;2023-05-10T11:38:16;17.60;99.90
14409;DHT22;7289;50.706;4.992;2023-05-10T11:40:44;17.70;99.90
14409;DHT22;7289;50.706;4.992;2023-05-10T11:43:12;17.50;99.90
14409;DHT22;7289;50.706;4.992;2023-05-10T11:45:41;17.50;99.90
14409;DHT22;7289;50.706;4.992;2023-05-10T11:48:10;17.50;99.90
14409;DHT22;7289;50.706;4.992;2023-05-10T11:50:38;17.70;99.90
14409;DHT22;7289;50.706;4.992;2023-05-10T11:53:07;17.50;99.90
14409;DHT22;7289;50.706;4.992;2023-05-10T11:55:36;17.70;99.90
14409;DHT22;7289;50.706;4.992;2023-05-10T11:58:05;17.70;99.90
14409;DHT22;7289;50.706;4.992;2023-05-10T12:00:33;17.70;99.90
14409;DHT22;7289;50.706;4.992;2023-05-10T12:03:03;17.70;99.90
14409;DHT22;7289;50.706;4.992;2023-05-10T12:05:32;17.80;99.90
14409;DHT22;7289;50.706;4.992;2023-05-10T12:08:20;18.10;99.90
14409;DHT22;7289;50.706;4.992;2023-05-10T12:10:50;18.30;99.90
14409;DHT22;7289;50.706;4.992;2023-05-10T12:13:20;18.30;99.90
14409;DHT22;7289;50.706;4.992;2023-05-10T12:15:48;18.30;99.90
14409;DHT22;7289;50.706;4.992;2023-05-10T12:18:23;18.10;99.90
14409;DHT22;7289;50.706;4.992;2023-05-10T12:20:52;18.30;99.90
14409;DHT22;7289;50.706;4.992;2023-05-10T12:23:21;18.40;99.90
14409;DHT22;7289;50.706;4.992;2023-05-10T12:25:51;18.60;99.90
14409;DHT22;7289;50.706;4.992;2023-05-10T12:28:20;18.90;99.90
14409;DHT22;7289;50.706;4.992;2023-05-10T12:30:53;19.20;99.90
14409;DHT22;7289;50.706;4.992;2023-05-10T12:33:22;19.80;99.90
14409;DHT22;7289;50.706;4.992;2023-05-10T12:35:52;20.10;99.90
14409;DHT22;7289;50.706;4.992;2023-05-10T12:38:25;20.20;99.90
14409;DHT22;7289;50.706;4.992;2023-05-10T12:40:58;20.20;99.70
14409;DHT22;7289;50.706;4.992;2023-05-10T12:43:27;20.30;99.90
14409;DHT22;7289;50.706;4.992;2023-05-10T12:45:56;19.80;99.90
14409;DHT22;7289;50.706;4.992;2023-05-10T12:48:24;19.90;99.90
14409;DHT22;7289;50.706;4.992;2023-05-10T12:50:53;19.90;99.90
14409;DHT22;7289;50.706;4.992;2023-05-10T12:53:21;20.40;99.90
14409;DHT22;7289;50.706;4.992;2023-05-10T12:55:49;20.20;99.90
14409;DHT22;7289;50.706;4.992;2023-05-10T12:58:19;20.20;99.90
14409;DHT22;7289;50.706;4.992;2023-05-10T13:00:53;20.40;99.90
14409;DHT22;7289;50.706;4.992;2023-05-10T13:03:23;20.70;98.80
14409;DHT22;7289;50.706;4.992;2023-05-10T13:05:51;21.20;99.70
14409;DHT22;7289;50.706;4.992;2023-05-10T13:08:20;21.60;98.50
14409;DHT22;7289;50.706;4.992;2023-05-10T13:10:48;21.50;98.40
14409;DHT22;7289;50.706;4.992;2023-05-10T13:13:18;21.50;97.70
14409;DHT22;7289;50.706;4.992;2023-05-10T13:15:47;21.80;98.00
14409;DHT22;7289;50.706;4.992;2023-05-10T13:18:15;22.00;97.40
14409;DHT22;7289;50.706;4.992;2023-05-10T13:20:44;21.90;96.70
14409;DHT22;7289;50.706;4.992;2023-05-10T13:23:12;21.80;97.00
14409;DHT22;7289;50.706;4.992;2023-05-10T13:25:40;21.70;97.00
14409;DHT22;7289;50.706;4.992;2023-05-10T13:28:09;21.70;96.40
14409;DHT22;7289;50.706;4.992;2023-05-10T13:30:38;21.40;97.40
14409;DHT22;7289;50.706;4.992;2023-05-10T13:33:07;21.20;97.50
14409;DHT22;7289;50.706;4.992;2023-05-10T13:35:35;21.20;98.30
14409;DHT22;7289;50.706;4.992;2023-05-10T13:38:03;21.10;97.50
14409;DHT22;7289;50.706;4.992;2023-05-10T13:40:35;21.50;97.90
14409;DHT22;7289;50.706;4.992;2023-05-10T13:43:03;21.40;96.60
14409;DHT22;7289;50.706;4.992;2023-05-10T13:45:32;21.50;98.40
14409;DHT22;7289;50.706;4.992;2023-05-10T13:48:02;21.70;96.70
14409;DHT22;7289;50.706;4.992;2023-05-10T13:50:30;22.00;96.60
14409;DHT22;7289;50.706;4.992;2023-05-10T13:52:59;21.90;95.00
14409;DHT22;7289;50.706;4.992;2023-05-10T13:55:27;21.50;95.20
14409;DHT22;7289;50.706;4.992;2023-05-10T13:57:55;21.30;95.50
14409;DHT22;7289;50.706;4.992;2023-05-10T14:00:24;21.40;95.50
14409;DHT22;7289;50.706;4.992;2023-05-10T14:02:53;21.30;96.00
14409;DHT22;7289;50.706;4.992;2023-05-10T14:05:23;21.40;96.10
14409;DHT22;7289;50.706;4.992;2023-05-10T14:07:52;21.50;95.90
14409;DHT22;7289;50.706;4.992;2023-05-10T14:10:21;21.40;95.80
14409;DHT22;7289;50.706;4.992;2023-05-10T14:12:50;21.20;96.40
14409;DHT22;7289;50.706;4.992;2023-05-10T14:15:18;21.20;96.00
14409;DHT22;7289;50.706;4.992;2023-05-10T14:17:47;21.00;96.10
14409;DHT22;7289;50.706;4.992;2023-05-10T14:20:16;21.00;95.70
14409;DHT22;7289;50.706;4.992;2023-05-10T14:22:46;20.90;95.80
14409;DHT22;7289;50.706;4.992;2023-05-10T14:25:14;20.90;95.60
14409;DHT22;7289;50.706;4.992;2023-05-10T14:27:43;21.10;96.20
14409;DHT22;7289;50.706;4.992;2023-05-10T14:30:12;20.90;95.90
14409;DHT22;7289;50.706;4.992;2023-05-10T14:32:40;21.10;95.80
14409;DHT22;7289;50.706;4.992;2023-05-10T14:35:09;21.20;95.90
14409;DHT22;7289;50.706;4.992;2023-05-10T14:37:39;21.30;95.80
14409;DHT22;7289;50.706;4.992;2023-05-10T14:40:10;21.40;95.30
14409;DHT22;7289;50.706;4.992;2023-05-10T14:42:38;21.30;94.90
14409;DHT22;7289;50.706;4.992;2023-05-10T14:45:08;21.30;95.60
14409;DHT22;7289;50.706;4.992;2023-05-10T14:47:36;21.30;95.70
14409;DHT22;7289;50.706;4.992;2023-05-10T14:50:06;21.00;95.40
14409;DHT22;7289;50.706;4.992;2023-05-10T14:52:34;20.80;96.00
14409;DHT22;7289;50.706;4.992;2023-05-10T14:55:04;20.80;95.60
14409;DHT22;7289;50.706;4.992;2023-05-10T14:57:33;20.90;95.00
14409;DHT22;7289;50.706;4.992;2023-05-10T15:00:02;20.80;95.40
14409;DHT22;7289;50.706;4.992;2023-05-10T15:02:31;20.80;95.30
14409;DHT22;7289;50.706;4.992;2023-05-10T15:05:00;20.80;95.30
14409;DHT22;7289;50.706;4.992;2023-05-10T15:07:29;20.90;95.80
14409;DHT22;7289;50.706;4.992;2023-05-10T15:09:58;21.00;95.20
14409;DHT22;7289;50.706;4.992;2023-05-10T15:12:26;20.80;95.70
14409;DHT22;7289;50.706;4.992;2023-05-10T15:14:56;20.90;95.80
14409;DHT22;7289;50.706;4.992;2023-05-10T15:17:24;20.80;95.30
14409;DHT22;7289;50.706;4.992;2023-05-10T15:19:53;20.60;95.30
14409;DHT22;7289;50.706;4.992;2023-05-10T15:22:21;20.50;95.70
14409;DHT22;7289;50.706;4.992;2023-05-10T15:24:49;20.30;96.10
14409;DHT22;7289;50.706;4.992;2023-05-10T15:27:17;20.10;96.70
14409;DHT22;7289;50.706;4.992;2023-05-10T15:29:46;20.10;97.10
14409;DHT22;7289;50.706;4.992;2023-05-10T15:32:15;20.20;97.00
14409;DHT22;7289;50.706;4.992;2023-05-10T15:34:44;20.20;97.60
14409;DHT22;7289;50.706;4.992;2023-05-10T15:37:12;20.10;97.50
14409;DHT22;7289;50.706;4.992;2023-05-10T15:39:41;20.10;96.70
14409;DHT22;7289;50.706;4.992;2023-05-10T15:42:09;20.10;97.00
14409;DHT22;7289;50.706;4.992;2023-05-10T15:44:37;20.20;96.90
14409;DHT22;7289;50.706;4.992;2023-05-10T15:47:06;20.20;96.60
14409;DHT22;7289;50.706;4.992;2023-05-10T15:49:35;20.30;97.00
14409;DHT22;7289;50.706;4.992;2023-05-10T15:52:04;20.30;96.20
14409;DHT22;7289;50.706;4.992;2023-05-10T15:54:32;20.30;96.40
14409;DHT22;7289;50.706;4.992;2023-05-10T15:57:00;20.10;96.50
14409;DHT22;7289;50.706;4.992;2023-05-10T15:59:29;20.00;96.90
14409;DHT22;7289;50.706;4.992;2023-05-10T16:01:57;20.00;97.10
14409;DHT22;7289;50.706;4.992;2023-05-10T16:04:26;20.00;97.50